createdAt,value
2022-09-22T00:01:41.939Z,18.50
2022-09-22T00:04:14.700Z,18.40
2022-09-22T00:06:48.047Z,18.40
2022-09-22T00:09:17.887Z,18.40
2022-09-22T00:11:48.073Z,18.40
2022-09-22T00:14:23.723Z,18.40
2022-09-22T00:16:57.548Z,18.40
2022-09-22T00:19:34.169Z,18.40
2022-09-22T00:22:02.153Z,18.40
2022-09-22T00:24:48.077Z,18.40
2022-09-22T00:27:15.397Z,18.40
2022-09-22T00:29:43.760Z,18.40
2022-09-22T00:32:13.636Z,18.40
2022-09-22T00:34:40.984Z,18.50
2022-09-22T00:37:08.689Z,18.50
2022-09-22T00:39:36.063Z,18.40
2022-09-22T00:42:05.474Z,18.40
2022-09-22T00:44:42.846Z,18.40
2022-09-22T00:47:29.872Z,18.40
2022-09-22T00:50:14.311Z,18.30
2022-09-22T00:52:50.799Z,18.30
2022-09-22T00:55:39.738Z,18.30
2022-09-22T00:58:16.804Z,18.30
2022-09-22T01:00:44.622Z,18.30
2022-09-22T01:03:30.174Z,18.30
2022-09-22T01:06:03.185Z,18.30
2022-09-22T01:08:39.286Z,18.30
2022-09-22T01:11:31.262Z,18.30
2022-09-22T01:14:15.478Z,18.30
2022-09-22T01:17:16.141Z,18.30
2022-09-22T01:20:16.161Z,18.30
2022-09-22T01:23:02.117Z,18.30
2022-09-22T01:25:32.234Z,18.20
2022-09-22T01:28:19.865Z,18.20
2022-09-22T01:31:03.745Z,18.20
2022-09-22T01:33:57.446Z,18.20
2022-09-22T01:36:55.297Z,18.20
2022-09-22T01:39:51.354Z,18.20
2022-09-22T01:42:44.195Z,18.10
2022-09-22T01:45:31.828Z,18.10
2022-09-22T01:48:13.853Z,18.10
2022-09-22T01:50:47.060Z,18.00
2022-09-22T01:53:22.869Z,18.10
2022-09-22T01:55:59.262Z,18.00
2022-09-22T01:58:49.758Z,17.90
2022-09-22T02:02:00.813Z,17.90
2022-09-22T02:04:48.397Z,17.90
2022-09-22T02:07:55.949Z,17.90
2022-09-22T02:10:32.269Z,17.90
2022-09-22T02:13:00.994Z,17.90
2022-09-22T02:15:47.725Z,17.90
2022-09-22T02:18:46.092Z,17.90
2022-09-22T02:21:15.048Z,17.80
2022-09-22T02:23:44.300Z,17.80
2022-09-22T02:26:14.285Z,17.70
2022-09-22T02:28:47.365Z,17.70
2022-09-22T02:31:20.812Z,17.60
2022-09-22T02:33:49.753Z,17.60
2022-09-22T02:36:35.917Z,17.60
2022-09-22T02:39:11.738Z,17.60
2022-09-22T02:42:09.896Z,17.50
2022-09-22T02:44:58.906Z,17.60
2022-09-22T02:47:57.244Z,17.50
2022-09-22T02:50:27.404Z,17.60
2022-09-22T02:53:18.685Z,17.50
2022-09-22T02:56:06.706Z,17.60
2022-09-22T02:58:34.036Z,17.60
2022-09-22T03:01:01.417Z,17.50
2022-09-22T03:03:28.714Z,17.60
2022-09-22T03:05:56.069Z,17.60
2022-09-22T03:08:23.364Z,17.60
2022-09-22T03:10:50.945Z,17.60
2022-09-22T03:13:18.313Z,17.70
2022-09-22T03:15:46.759Z,17.70
2022-09-22T03:18:14.647Z,17.70
2022-09-22T03:20:42.002Z,17.70
2022-09-22T03:23:09.611Z,17.70
2022-09-22T03:25:36.953Z,17.70
2022-09-22T03:28:04.322Z,17.70
2022-09-22T03:30:38.050Z,17.70
2022-09-22T03:33:05.498Z,17.70
2022-09-22T03:35:32.813Z,17.70
2022-09-22T03:38:00.126Z,17.70
2022-09-22T03:40:27.561Z,17.70
2022-09-22T03:42:55.591Z,17.70
2022-09-22T03:45:30.637Z,17.80
2022-09-22T03:47:59.060Z,17.80
2022-09-22T03:50:28.300Z,17.80
2022-09-22T03:52:59.173Z,17.80
2022-09-22T03:55:26.560Z,17.80
2022-09-22T03:57:53.865Z,17.80
2022-09-22T04:00:21.141Z,17.80
2022-09-22T04:03:24.333Z,17.80
2022-09-22T04:05:54.586Z,17.80
2022-09-22T04:08:21.873Z,17.80
2022-09-22T04:10:57.796Z,17.80
2022-09-22T04:13:25.094Z,17.80
2022-09-22T04:15:56.451Z,17.80
2022-09-22T04:18:24.129Z,17.70
2022-09-22T04:21:00.971Z,17.70
2022-09-22T04:23:28.400Z,17.80
2022-09-22T04:25:55.920Z,17.80
2022-09-22T04:28:23.299Z,17.90
2022-09-22T04:30:51.193Z,17.90
2022-09-22T04:33:18.975Z,17.80
2022-09-22T04:35:48.224Z,17.80
2022-09-22T04:38:16.065Z,17.80
2022-09-22T04:40:43.612Z,17.70
2022-09-22T04:43:31.359Z,17.70
2022-09-22T04:45:58.823Z,17.60
2022-09-22T04:48:26.301Z,17.60
2022-09-22T04:50:54.843Z,17.60
2022-09-22T04:53:22.152Z,17.70
2022-09-22T04:55:58.066Z,17.60
2022-09-22T04:58:26.075Z,17.70
2022-09-22T05:00:55.727Z,17.70
2022-09-22T05:03:23.169Z,17.60
2022-09-22T05:05:53.352Z,17.60
2022-09-22T05:08:20.722Z,17.60
2022-09-22T05:10:49.512Z,17.60
2022-09-22T05:13:16.934Z,17.60
2022-09-22T05:15:44.529Z,17.60
2022-09-22T05:18:12.027Z,17.70
2022-09-22T05:20:44.454Z,17.70
2022-09-22T05:23:11.749Z,17.70
2022-09-22T05:25:39.364Z,17.70
2022-09-22T05:28:06.730Z,17.70
2022-09-22T05:30:34.249Z,17.70
2022-09-22T05:33:04.651Z,17.70
2022-09-22T05:35:36.681Z,17.80
2022-09-22T05:38:04.554Z,17.80
2022-09-22T05:40:32.176Z,17.80
2022-09-22T05:42:59.519Z,17.90
2022-09-22T05:45:26.868Z,17.90
2022-09-22T05:47:54.327Z,18.00
2022-09-22T05:50:23.953Z,18.00
2022-09-22T05:52:51.873Z,18.00
2022-09-22T05:55:22.203Z,18.00
2022-09-22T05:57:57.392Z,18.10
2022-09-22T06:00:27.404Z,18.20
2022-09-22T06:03:01.890Z,18.30
2022-09-22T06:09:22.555Z,18.50
2022-09-22T06:11:50.393Z,18.60
2022-09-22T06:14:17.746Z,18.60
2022-09-22T06:16:45.223Z,18.60
2022-09-22T06:19:14.704Z,18.60
2022-09-22T06:21:41.967Z,18.60
2022-09-22T06:24:15.631Z,18.60
2022-09-22T06:26:42.933Z,18.70
2022-09-22T06:29:10.735Z,18.70
2022-09-22T06:31:38.737Z,18.70
2022-09-22T06:34:08.515Z,18.70
2022-09-22T06:36:35.955Z,18.70
2022-09-22T06:39:07.479Z,18.70
2022-09-22T06:41:34.866Z,18.80
2022-09-22T06:44:06.999Z,18.90
2022-09-22T06:46:34.830Z,18.90
2022-09-22T06:49:02.615Z,19.00
2022-09-22T06:51:33.000Z,19.10
2022-09-22T06:54:05.917Z,19.20
2022-09-22T06:56:38.917Z,19.20
2022-09-22T06:59:14.008Z,19.30
2022-09-22T07:01:42.590Z,19.30
2022-09-22T07:04:12.197Z,19.40
2022-09-22T07:06:40.572Z,19.40
2022-09-22T07:09:24.523Z,19.50
2022-09-22T07:11:52.190Z,19.60
2022-09-22T07:14:22.243Z,19.60
2022-09-22T07:16:52.527Z,19.70
2022-09-22T07:19:19.929Z,19.80
2022-09-22T07:21:47.824Z,19.90
2022-09-22T07:24:15.150Z,20.00
2022-09-22T07:27:02.409Z,20.10
2022-09-22T07:29:55.239Z,20.20
2022-09-22T07:32:45.874Z,20.30
2022-09-22T07:35:13.202Z,20.40
2022-09-22T07:37:41.336Z,20.40
2022-09-22T07:40:09.013Z,20.40
2022-09-22T07:42:38.612Z,20.40
2022-09-22T07:45:15.625Z,20.40
2022-09-22T07:51:58.467Z,20.40
2022-09-22T07:54:46.055Z,20.50
2022-09-22T07:57:13.312Z,20.50
2022-09-22T07:59:41.987Z,20.50
2022-09-22T08:02:09.537Z,20.50
2022-09-22T08:04:39.136Z,20.50
2022-09-22T08:07:07.237Z,20.50
2022-09-22T08:09:34.747Z,20.50
2022-09-22T08:12:04.414Z,20.50
2022-09-22T08:14:31.693Z,20.60
2022-09-22T08:17:00.685Z,20.70
2022-09-22T08:19:28.869Z,20.70
2022-09-22T08:21:56.121Z,20.80
2022-09-22T08:24:23.970Z,20.80
2022-09-22T08:26:56.177Z,20.90
2022-09-22T08:29:24.628Z,20.90
2022-09-22T08:31:54.163Z,21.00
2022-09-22T08:34:22.421Z,21.10
2022-09-22T08:36:49.932Z,21.20
2022-09-22T08:39:18.081Z,21.30
2022-09-22T08:41:54.200Z,21.40
2022-09-22T08:44:28.949Z,21.30
2022-09-22T08:47:01.176Z,21.30
2022-09-22T08:50:02.746Z,21.30
2022-09-22T08:52:35.807Z,21.40
2022-09-22T08:55:03.601Z,21.40
2022-09-22T08:57:56.851Z,21.50
2022-09-22T09:00:29.608Z,21.40
2022-09-22T09:03:00.121Z,21.40
2022-09-22T09:05:30.426Z,21.50
2022-09-22T09:08:35.366Z,21.70
2022-09-22T09:11:27.135Z,21.70
2022-09-22T09:14:09.234Z,21.80
2022-09-22T09:16:48.425Z,21.80
2022-09-22T09:19:21.369Z,21.80
2022-09-22T09:21:56.332Z,21.80
2022-09-22T09:27:47.817Z,22.00
2022-09-22T09:30:20.502Z,22.00
2022-09-22T09:32:54.989Z,22.00
2022-09-22T09:35:52.035Z,22.10
2022-09-22T09:38:35.043Z,22.10
2022-09-22T09:41:15.616Z,22.10
2022-09-22T09:44:00.768Z,22.10
2022-09-22T09:46:52.646Z,22.20
2022-09-22T09:49:24.933Z,22.10
2022-09-22T09:51:58.882Z,21.90
2022-09-22T09:54:27.689Z,21.80
2022-09-22T09:57:12.832Z,21.60
2022-09-22T10:00:01.089Z,21.50
2022-09-22T10:02:33.884Z,21.50
2022-09-22T10:05:22.380Z,21.70
2022-09-22T10:08:03.895Z,22.10
2022-09-22T10:10:37.179Z,22.30
2022-09-22T10:13:04.449Z,22.40
2022-09-22T10:15:34.367Z,22.50
2022-09-22T10:18:03.742Z,22.60
2022-09-22T10:20:34.637Z,22.70
2022-09-22T10:23:21.530Z,22.80
2022-09-22T10:25:50.616Z,22.90
2022-09-22T10:28:21.777Z,23.00
2022-09-22T10:31:00.349Z,23.10
2022-09-22T10:33:27.837Z,23.10
2022-09-22T10:36:15.709Z,23.20
2022-09-22T10:38:43.775Z,23.40
2022-09-22T10:41:18.068Z,23.60
2022-09-22T10:44:15.522Z,23.60
2022-09-22T10:46:58.078Z,23.60
2022-09-22T10:49:41.032Z,23.70
2022-09-22T10:52:34.675Z,24.00
2022-09-22T10:55:20.831Z,24.20
2022-09-22T10:57:58.784Z,24.60
2022-09-22T11:00:27.926Z,25.10
2022-09-22T11:03:32.867Z,26.10
2022-09-22T11:06:30.848Z,31.10
2022-09-22T11:09:43.819Z,36.60
2022-09-22T11:12:23.461Z,41.10
2022-09-22T11:15:07.710Z,44.20
2022-09-22T11:17:53.449Z,45.40
2022-09-22T11:21:04.146Z,46.60
2022-09-22T11:23:50.024Z,47.40
2022-09-22T11:26:43.885Z,47.70
2022-09-22T11:29:28.874Z,48.50
2022-09-22T11:31:59.286Z,49.00
2022-09-22T11:34:50.700Z,48.90
2022-09-22T11:37:28.586Z,49.40
2022-09-22T11:39:58.595Z,47.70
2022-09-22T11:42:36.701Z,45.70
2022-09-22T11:45:06.745Z,42.40
2022-09-22T11:48:08.206Z,38.50
2022-09-22T11:50:51.248Z,35.10
2022-09-22T11:53:21.954Z,32.50
2022-09-22T11:56:28.355Z,30.80
2022-09-22T11:59:18.841Z,29.70
2022-09-22T12:01:48.630Z,28.60
2022-09-22T12:04:41.164Z,27.50
2022-09-22T12:07:31.262Z,26.80
2022-09-22T12:10:36.897Z,26.30
2022-09-22T12:13:13.191Z,26.00
2022-09-22T12:15:43.695Z,25.80
2022-09-22T12:18:22.934Z,26.00
2022-09-22T12:21:13.518Z,26.30
2022-09-22T12:24:02.534Z,26.50
2022-09-22T12:26:34.990Z,26.60
2022-09-22T12:29:16.390Z,26.60
2022-09-22T12:31:48.329Z,26.60
2022-09-22T12:34:44.089Z,26.40
2022-09-22T12:37:29.685Z,26.20
2022-09-22T12:40:05.068Z,26.10
2022-09-22T12:42:37.760Z,26.10
2022-09-22T12:45:13.944Z,26.00
2022-09-22T12:47:51.769Z,25.90
2022-09-22T12:50:31.106Z,25.90
2022-09-22T12:56:47.896Z,25.50
2022-09-22T12:59:37.099Z,25.20
2022-09-22T13:02:29.762Z,25.10
2022-09-22T13:04:58.636Z,25.10
2022-09-22T13:07:44.315Z,25.10
2022-09-22T13:10:27.327Z,25.20
2022-09-22T13:13:03.801Z,25.10
2022-09-22T13:15:35.401Z,25.10
2022-09-22T13:18:02.848Z,25.10
2022-09-22T13:20:36.089Z,25.00
2022-09-22T13:23:05.641Z,24.90
2022-09-22T13:25:32.884Z,24.80
2022-09-22T13:28:20.515Z,24.70
2022-09-22T13:31:18.281Z,24.70
2022-09-22T13:33:46.680Z,24.60
2022-09-22T13:36:17.503Z,24.40
2022-09-22T13:38:57.550Z,24.40
2022-09-22T13:41:28.564Z,24.40
2022-09-22T13:44:18.732Z,24.50
2022-09-22T13:47:06.333Z,24.40
2022-09-22T13:49:54.997Z,24.40
2022-09-22T13:52:27.417Z,24.40
2022-09-22T13:55:05.243Z,24.50
2022-09-22T13:57:39.619Z,24.40
2022-09-22T14:00:10.233Z,24.40
2022-09-22T14:03:17.509Z,24.40
2022-09-22T14:05:53.439Z,24.40
2022-09-22T14:08:33.478Z,24.30
2022-09-22T14:11:01.767Z,24.30
2022-09-22T14:13:42.776Z,24.30
2022-09-22T14:16:32.035Z,24.30
2022-09-22T14:19:14.444Z,24.30
2022-09-22T14:21:50.320Z,24.20
2022-09-22T14:24:18.557Z,24.20
2022-09-22T14:26:51.242Z,24.10
2022-09-22T14:29:39.639Z,23.80
2022-09-22T14:32:37.420Z,23.60
2022-09-22T14:35:13.341Z,23.60
2022-09-22T14:37:48.919Z,23.40
2022-09-22T14:40:26.371Z,23.40
2022-09-22T14:43:11.322Z,23.40
2022-09-22T14:46:06.103Z,23.40
2022-09-22T14:48:36.551Z,23.40
2022-09-22T14:51:08.236Z,23.30
2022-09-22T14:53:58.713Z,23.30
2022-09-22T14:56:29.014Z,23.20
2022-09-22T14:59:27.714Z,23.20
2022-09-22T15:02:15.491Z,23.10
2022-09-22T15:04:50.125Z,23.00
2022-09-22T15:07:29.135Z,23.00
2022-09-22T15:10:00.059Z,23.00
2022-09-22T15:12:50.836Z,22.90
2022-09-22T15:15:31.337Z,23.00
2022-09-22T15:18:18.760Z,22.90
2022-09-22T15:20:58.695Z,22.90
2022-09-22T15:23:39.459Z,22.90
2022-09-22T15:26:13.200Z,22.90
2022-09-22T15:28:40.812Z,23.00
2022-09-22T15:31:22.534Z,23.00
2022-09-22T15:33:50.189Z,23.00
2022-09-22T15:36:25.537Z,23.00
2022-09-22T15:39:16.853Z,23.00
2022-09-22T15:41:44.353Z,23.00
2022-09-22T15:44:11.609Z,23.00
2022-09-22T15:46:39.683Z,22.90
2022-09-22T15:49:25.037Z,22.80
2022-09-22T15:51:54.807Z,22.80
2022-09-22T15:54:26.934Z,22.70
2022-09-22T15:56:56.481Z,22.70
2022-09-22T15:59:29.706Z,22.70
2022-09-22T16:01:57.222Z,22.70
2022-09-22T16:04:25.277Z,22.80
2022-09-22T16:06:55.862Z,22.80
2022-09-22T16:09:23.225Z,22.70
2022-09-22T16:11:50.849Z,22.70
2022-09-22T16:14:18.709Z,22.60
2022-09-22T16:17:01.410Z,22.60
2022-09-22T16:19:30.366Z,22.50
2022-09-22T16:21:57.730Z,22.50
2022-09-22T16:24:29.698Z,22.50
2022-09-22T16:26:57.028Z,22.50
2022-09-22T16:29:26.840Z,22.40
2022-09-22T16:31:54.234Z,22.40
2022-09-22T16:34:21.590Z,22.40
2022-09-22T16:36:48.876Z,22.40
2022-09-22T16:39:17.190Z,22.40
2022-09-22T16:45:43.545Z,22.30
2022-09-22T16:48:10.859Z,22.30
2022-09-22T16:50:38.151Z,22.30
2022-09-22T16:53:15.996Z,22.20
2022-09-22T16:55:52.961Z,22.20
2022-09-22T16:58:21.289Z,22.20
2022-09-22T17:00:48.727Z,22.20
2022-09-22T17:03:21.351Z,22.10
2022-09-22T17:06:01.327Z,22.10
2022-09-22T17:08:49.170Z,22.10
2022-09-22T17:12:10.955Z,22.00
2022-09-22T17:15:20.515Z,22.00
2022-09-22T17:17:48.803Z,22.00
2022-09-22T17:20:18.043Z,21.90
2022-09-22T17:26:00.429Z,21.90
2022-09-22T17:28:31.445Z,21.90
2022-09-22T17:30:59.744Z,21.80
2022-09-22T17:33:29.748Z,21.80
2022-09-22T17:36:01.164Z,21.90
2022-09-22T17:38:36.111Z,21.90
2022-09-22T17:41:08.295Z,21.80
2022-09-22T17:43:36.470Z,21.80
2022-09-22T17:46:03.781Z,21.70
2022-09-22T17:48:50.020Z,21.70
2022-09-22T17:51:55.217Z,21.70
2022-09-22T17:54:42.314Z,21.70
2022-09-22T17:57:12.665Z,21.70
2022-09-22T17:59:43.819Z,21.70
2022-09-22T18:02:38.855Z,21.70
2022-09-22T18:05:42.428Z,21.60
2022-09-22T18:08:48.758Z,21.60
2022-09-22T18:12:47.325Z,21.60
2022-09-22T18:15:31.769Z,21.40
2022-09-22T18:18:16.288Z,21.40
2022-09-22T18:20:52.085Z,21.40
2022-09-22T18:23:37.150Z,21.30
2022-09-22T18:26:04.467Z,21.30
2022-09-22T18:28:31.746Z,21.30
2022-09-22T18:30:59.251Z,21.20
2022-09-22T18:33:26.592Z,21.10
2022-09-22T18:35:54.703Z,21.10
2022-09-22T18:38:21.919Z,21.10
2022-09-22T18:40:49.927Z,21.10
2022-09-22T18:43:18.551Z,21.00
2022-09-22T18:46:04.946Z,21.00
2022-09-22T18:49:04.155Z,21.00
2022-09-22T18:51:53.101Z,21.00
2022-09-22T18:54:32.564Z,20.90
2022-09-22T18:57:18.820Z,20.80
2022-09-22T19:00:10.900Z,20.80
2022-09-22T19:02:58.959Z,20.80
2022-09-22T19:05:29.332Z,20.70
2022-09-22T19:10:50.170Z,20.70
2022-09-22T19:16:02.921Z,20.60
2022-09-22T19:18:36.525Z,20.60
2022-09-22T19:24:10.944Z,20.60
2022-09-22T19:26:58.503Z,20.50
2022-09-22T19:29:54.352Z,20.50
2022-09-22T19:32:34.512Z,20.50
2022-09-22T19:35:03.460Z,20.50
2022-09-22T19:37:53.584Z,20.50
2022-09-22T19:40:29.322Z,20.40
2022-09-22T19:43:12.285Z,20.30
2022-09-22T19:45:40.893Z,20.30
2022-09-22T19:48:10.087Z,20.20
2022-09-22T19:50:42.939Z,20.20
2022-09-22T19:53:10.700Z,20.10
2022-09-22T19:56:27.064Z,20.00
2022-09-22T20:03:50.878Z,20.00
2022-09-22T20:06:41.151Z,20.00
2022-09-22T20:09:57.040Z,20.00
2022-09-22T20:12:52.909Z,20.00
2022-09-22T20:15:41.391Z,20.00
2022-09-22T20:18:16.408Z,20.00
2022-09-22T20:20:47.119Z,20.00
2022-09-22T20:23:34.458Z,19.90
2022-09-22T20:26:01.725Z,19.90
2022-09-22T20:28:32.072Z,19.90
2022-09-22T20:31:19.404Z,19.80
2022-09-22T20:33:46.845Z,19.80
2022-09-22T20:36:16.724Z,19.70
2022-09-22T20:39:22.705Z,19.70
2022-09-22T20:41:50.078Z,19.60
2022-09-22T20:44:17.421Z,19.60
2022-09-22T20:47:02.157Z,19.50
2022-09-22T20:49:29.403Z,19.50
2022-09-22T20:51:59.532Z,19.40
2022-09-22T20:54:27.166Z,19.40
2022-09-22T20:56:58.892Z,19.40
2022-09-22T20:59:26.194Z,19.40
2022-09-22T21:01:57.278Z,19.40
2022-09-22T21:04:30.424Z,19.40
2022-09-22T21:10:35.275Z,19.30
2022-09-22T21:13:26.841Z,19.30
2022-09-22T21:16:05.663Z,19.10
2022-09-22T21:18:42.155Z,19.10
2022-09-22T21:21:54.129Z,19.00
2022-09-22T21:24:41.624Z,19.00
2022-09-22T21:27:21.370Z,18.90
2022-09-22T21:29:49.134Z,18.90
2022-09-22T21:33:00.480Z,18.80
2022-09-22T21:36:22.001Z,18.70
2022-09-22T21:39:33.231Z,18.70
2022-09-22T21:46:15.046Z,18.60
2022-09-22T21:49:15.237Z,18.50
2022-09-22T21:52:28.232Z,18.50
2022-09-22T21:55:56.076Z,18.40
2022-09-22T21:58:23.462Z,18.40
2022-09-22T22:01:28.522Z,18.40
2022-09-22T22:08:20.610Z,18.30
2022-09-22T22:11:22.923Z,18.30
2022-09-22T22:13:58.937Z,18.30
2022-09-22T22:16:31.903Z,18.30
2022-09-22T22:18:59.457Z,18.30
2022-09-22T22:21:31.529Z,18.20
2022-09-22T22:24:20.896Z,18.20
2022-09-22T22:26:52.844Z,18.20
2022-09-22T22:29:43.018Z,18.20
2022-09-22T22:32:10.821Z,18.20
2022-09-22T22:34:38.226Z,18.10
2022-09-22T22:37:09.829Z,18.20
2022-09-22T22:39:37.783Z,18.10
2022-09-22T22:42:05.555Z,18.10
2022-09-22T22:44:32.919Z,18.10
2022-09-22T22:47:00.271Z,18.10
2022-09-22T22:49:28.209Z,18.10
2022-09-22T22:51:59.055Z,18.10
2022-09-22T22:55:11.169Z,18.10
2022-09-22T22:57:38.853Z,18.10
2022-09-22T23:00:27.097Z,18.10
2022-09-22T23:02:54.470Z,18.00
2022-09-22T23:05:21.976Z,18.00
2022-09-22T23:07:53.832Z,18.00
2022-09-22T23:10:22.160Z,17.90
2022-09-22T23:12:54.948Z,17.90
2022-09-22T23:15:22.262Z,17.90
2022-09-22T23:17:49.617Z,17.90
2022-09-22T23:20:17.203Z,17.90
2022-09-22T23:22:44.676Z,17.80
2022-09-22T23:25:14.593Z,17.80
2022-09-22T23:28:03.260Z,17.80
2022-09-22T23:30:33.366Z,17.80
2022-09-22T23:33:00.858Z,17.70
2022-09-22T23:35:28.152Z,17.70
2022-09-22T23:37:56.876Z,17.70
2022-09-22T23:40:24.266Z,17.70
2022-09-22T23:42:52.363Z,17.70
2022-09-22T23:45:24.577Z,17.70
2022-09-22T23:47:55.321Z,17.60
2022-09-22T23:50:29.393Z,17.60
2022-09-22T23:52:56.798Z,17.60
2022-09-22T23:55:24.074Z,17.60
2022-09-22T23:57:53.276Z,17.60
